sensor_id;sensor_type;location;lat;lon;timestamp;pressure;altitude;pressure_sealevel;temperature;humidity
52975;BME280;38839;45.186;5.720;2023-07-22T00:01:50;99042.94;;;22.76;74.72
52975;BME280;38839;45.186;5.720;2023-07-22T00:04:15;99045.72;;;22.75;74.29
52975;BME280;38839;45.186;5.720;2023-07-22T00:06:41;99045.94;;;22.70;74.26
52975;BME280;38839;45.186;5.720;2023-07-22T00:09:06;99048.59;;;22.70;74.40
52975;BME280;38839;45.186;5.720;2023-07-22T00:11:32;99045.94;;;22.70;74.55
52975;BME280;38839;45.186;5.720;2023-07-22T00:13:57;99048.47;;;22.73;74.67
52975;BME280;38839;45.186;5.720;2023-07-22T00:16:22;99042.38;;;22.71;74.25
52975;BME280;38839;45.186;5.720;2023-07-22T00:18:48;99045.44;;;22.63;74.24
52975;BME280;38839;45.186;5.720;2023-07-22T00:21:13;99054.44;;;22.61;73.91
52975;BME280;38839;45.186;5.720;2023-07-22T00:23:40;99040.19;;;22.62;74.08
52975;BME280;38839;45.186;5.720;2023-07-22T00:26:05;99035.97;;;22.58;73.88
52975;BME280;38839;45.186;5.720;2023-07-22T00:28:30;99030.66;;;22.58;73.34
52975;BME280;38839;45.186;5.720;2023-07-22T00:30:56;99037.72;;;22.59;73.55
52975;BME280;38839;45.186;5.720;2023-07-22T00:33:22;99028.78;;;22.60;73.03
52975;BME280;38839;45.186;5.720;2023-07-22T00:35:49;99032.41;;;22.59;72.62
52975;BME280;38839;45.186;5.720;2023-07-22T00:38:17;99029.88;;;22.56;72.57
52975;BME280;38839;45.186;5.720;2023-07-22T00:40:43;99025.53;;;22.55;72.54
52975;BME280;38839;45.186;5.720;2023-07-22T00:43:09;99026.56;;;22.52;72.82
52975;BME280;38839;45.186;5.720;2023-07-22T00:45:34;99024.06;;;22.49;72.56
52975;BME280;38839;45.186;5.720;2023-07-22T00:48:00;99033.22;;;22.43;72.32
52975;BME280;38839;45.186;5.720;2023-07-22T00:50:25;99028.94;;;22.41;72.33
52975;BME280;38839;45.186;5.720;2023-07-22T00:52:52;99024.72;;;22.37;72.47
52975;BME280;38839;45.186;5.720;2023-07-22T00:55:17;99032.94;;;22.32;72.43
52975;BME280;38839;45.186;5.720;2023-07-22T00:57:43;99017.91;;;22.31;72.73
52975;BME280;38839;45.186;5.720;2023-07-22T01:00:09;99026.84;;;22.30;72.86
52975;BME280;38839;45.186;5.720;2023-07-22T01:02:38;99031.31;;;22.29;73.02
52975;BME280;38839;45.186;5.720;2023-07-22T01:05:04;99030.44;;;22.29;73.02
52975;BME280;38839;45.186;5.720;2023-07-22T01:07:30;99027.19;;;22.24;73.25
52975;BME280;38839;45.186;5.720;2023-07-22T01:09:56;99021.84;;;22.24;73.04
52975;BME280;38839;45.186;5.720;2023-07-22T01:12:21;99020.09;;;22.23;73.23
52975;BME280;38839;45.186;5.720;2023-07-22T01:14:47;99029.16;;;22.19;72.83
52975;BME280;38839;45.186;5.720;2023-07-22T01:17:12;99019.31;;;22.21;73.13
52975;BME280;38839;45.186;5.720;2023-07-22T01:19:38;99013.41;;;22.16;73.00
52975;BME280;38839;45.186;5.720;2023-07-22T01:22:05;99009.91;;;22.15;72.87
52975;BME280;38839;45.186;5.720;2023-07-22T01:24:36;99017.16;;;22.12;72.88
52975;BME280;38839;45.186;5.720;2023-07-22T01:27:08;99019.03;;;22.09;73.20
52975;BME280;38839;45.186;5.720;2023-07-22T01:29:36;99021.78;;;22.08;73.06
52975;BME280;38839;45.186;5.720;2023-07-22T01:32:02;99015.59;;;22.07;73.33
52975;BME280;38839;45.186;5.720;2023-07-22T01:34:27;99006.00;;;22.05;73.62
52975;BME280;38839;45.186;5.720;2023-07-22T01:36:53;99021.06;;;22.04;73.81
52975;BME280;38839;45.186;5.720;2023-07-22T01:39:19;99018.59;;;22.01;74.02
52975;BME280;38839;45.186;5.720;2023-07-22T01:41:45;99014.19;;;22.00;74.21
52975;BME280;38839;45.186;5.720;2023-07-22T01:44:10;99017.81;;;21.99;74.53
52975;BME280;38839;45.186;5.720;2023-07-22T01:46:39;99019.81;;;21.94;74.92
52975;BME280;38839;45.186;5.720;2023-07-22T01:49:07;99019.75;;;21.96;75.08
52975;BME280;38839;45.186;5.720;2023-07-22T01:51:36;99015.28;;;21.96;75.15
52975;BME280;38839;45.186;5.720;2023-07-22T01:54:05;99024.34;;;21.92;75.73
52975;BME280;38839;45.186;5.720;2023-07-22T01:56:31;99017.50;;;21.88;75.84
52975;BME280;38839;45.186;5.720;2023-07-22T01:58:56;99029.06;;;21.87;76.00
52975;BME280;38839;45.186;5.720;2023-07-22T02:01:21;99029.22;;;21.84;75.60
52975;BME280;38839;45.186;5.720;2023-07-22T02:03:47;99030.09;;;21.84;75.73
52975;BME280;38839;45.186;5.720;2023-07-22T02:06:12;99038.13;;;21.83;75.82
52975;BME280;38839;45.186;5.720;2023-07-22T02:08:38;99028.53;;;21.80;76.03
52975;BME280;38839;45.186;5.720;2023-07-22T02:11:05;99033.97;;;21.77;76.14
52975;BME280;38839;45.186;5.720;2023-07-22T02:13:32;99030.63;;;21.74;75.91
52975;BME280;38839;45.186;5.720;2023-07-22T02:15:57;99028.91;;;21.73;75.92
52975;BME280;38839;45.186;5.720;2023-07-22T02:18:24;99029.06;;;21.69;76.22
52975;BME280;38839;45.186;5.720;2023-07-22T02:20:49;99025.00;;;21.62;76.60
52975;BME280;38839;45.186;5.720;2023-07-22T02:23:14;99023.44;;;21.58;76.52
52975;BME280;38839;45.186;5.720;2023-07-22T02:25:40;99032.31;;;21.57;76.30
52975;BME280;38839;45.186;5.720;2023-07-22T02:28:05;99026.34;;;21.54;76.52
52975;BME280;38839;45.186;5.720;2023-07-22T02:30:34;99035.28;;;21.51;76.58
52975;BME280;38839;45.186;5.720;2023-07-22T02:33:00;99032.81;;;21.48;76.38
52975;BME280;38839;45.186;5.720;2023-07-22T02:35:26;99029.38;;;21.46;76.60
52975;BME280;38839;45.186;5.720;2023-07-22T02:37:51;99027.75;;;21.42;76.86
52975;BME280;38839;45.186;5.720;2023-07-22T02:40:16;99029.69;;;21.38;77.10
52975;BME280;38839;45.186;5.720;2023-07-22T02:42:42;99032.44;;;21.37;77.20
52975;BME280;38839;45.186;5.720;2023-07-22T02:45:07;99035.38;;;21.30;77.60
52975;BME280;38839;45.186;5.720;2023-07-22T02:47:33;99033.59;;;21.31;77.86
52975;BME280;38839;45.186;5.720;2023-07-22T02:49:59;99049.44;;;21.33;78.29
52975;BME280;38839;45.186;5.720;2023-07-22T02:52:25;99051.31;;;21.30;79.26
52975;BME280;38839;45.186;5.720;2023-07-22T02:57:32;99053.16;;;21.28;80.58
52975;BME280;38839;45.186;5.720;2023-07-22T02:59:57;99052.38;;;21.26;80.25
52975;BME280;38839;45.186;5.720;2023-07-22T03:02:22;99055.03;;;21.26;79.28
52975;BME280;38839;45.186;5.720;2023-07-22T03:04:48;99049.19;;;21.20;78.54
52975;BME280;38839;45.186;5.720;2023-07-22T03:07:13;99055.50;;;21.17;78.38
52975;BME280;38839;45.186;5.720;2023-07-22T03:09:39;99058.22;;;21.16;78.13
52975;BME280;38839;45.186;5.720;2023-07-22T03:12:05;99055.63;;;21.14;79.50
52975;BME280;38839;45.186;5.720;2023-07-22T03:14:30;99068.19;;;21.10;81.10
52975;BME280;38839;45.186;5.720;2023-07-22T03:17:02;99083.22;;;21.10;80.88
52975;BME280;38839;45.186;5.720;2023-07-22T03:19:29;99079.66;;;21.11;81.61
52975;BME280;38839;45.186;5.720;2023-07-22T03:21:54;99084.31;;;21.06;82.88
52975;BME280;38839;45.186;5.720;2023-07-22T03:24:20;99089.84;;;21.01;83.58
52975;BME280;38839;45.186;5.720;2023-07-22T03:26:45;99100.78;;;20.94;85.07
52975;BME280;38839;45.186;5.720;2023-07-22T03:29:11;99104.81;;;20.83;86.48
52975;BME280;38839;45.186;5.720;2023-07-22T03:31:36;99102.16;;;20.83;87.26
52975;BME280;38839;45.186;5.720;2023-07-22T03:34:01;99108.53;;;20.79;88.28
52975;BME280;38839;45.186;5.720;2023-07-22T03:36:27;99108.69;;;20.76;88.91
52975;BME280;38839;45.186;5.720;2023-07-22T03:38:52;99115.84;;;20.74;89.58
52975;BME280;38839;45.186;5.720;2023-07-22T03:41:17;99123.13;;;20.69;90.11
52975;BME280;38839;45.186;5.720;2023-07-22T03:43:43;99126.00;;;20.64;90.91
52975;BME280;38839;45.186;5.720;2023-07-22T03:46:08;99128.72;;;20.63;91.44
52975;BME280;38839;45.186;5.720;2023-07-22T03:48:34;99127.13;;;20.59;91.83
52975;BME280;38839;45.186;5.720;2023-07-22T03:51:00;99127.25;;;20.56;92.96
52975;BME280;38839;45.186;5.720;2023-07-22T03:53:25;99131.34;;;20.42;93.83
52975;BME280;38839;45.186;5.720;2023-07-22T03:55:50;99137.06;;;20.33;95.24
52975;BME280;38839;45.186;5.720;2023-07-22T03:58:16;99141.69;;;20.28;95.85
52975;BME280;38839;45.186;5.720;2023-07-22T04:00:42;99141.88;;;20.23;96.35
52975;BME280;38839;45.186;5.720;2023-07-22T04:03:07;99148.03;;;20.24;96.39
52975;BME280;38839;45.186;5.720;2023-07-22T04:05:33;99141.63;;;20.29;96.26
52975;BME280;38839;45.186;5.720;2023-07-22T04:07:58;99139.31;;;20.22;96.46
52975;BME280;38839;45.186;5.720;2023-07-22T04:10:23;99143.88;;;20.18;96.55
52975;BME280;38839;45.186;5.720;2023-07-22T04:12:49;99155.06;;;20.25;96.02
52975;BME280;38839;45.186;5.720;2023-07-22T04:15:14;99152.22;;;20.29;95.82
52975;BME280;38839;45.186;5.720;2023-07-22T04:17:40;99160.13;;;20.31;95.17
52975;BME280;38839;45.186;5.720;2023-07-22T04:20:06;99156.41;;;20.35;94.65
52975;BME280;38839;45.186;5.720;2023-07-22T04:22:34;99153.88;;;20.32;94.28
52975;BME280;38839;45.186;5.720;2023-07-22T04:24:59;99149.19;;;20.39;94.19
52975;BME280;38839;45.186;5.720;2023-07-22T04:27:26;99155.06;;;20.45;93.58
52975;BME280;38839;45.186;5.720;2023-07-22T04:29:52;99161.38;;;20.43;92.91
52975;BME280;38839;45.186;5.720;2023-07-22T04:32:17;99162.88;;;20.48;92.26
52975;BME280;38839;45.186;5.720;2023-07-22T04:34:42;99164.63;;;20.49;91.28
52975;BME280;38839;45.186;5.720;2023-07-22T04:37:08;99162.59;;;20.55;91.42
52975;BME280;38839;45.186;5.720;2023-07-22T04:39:33;99160.41;;;20.66;91.15
52975;BME280;38839;45.186;5.720;2023-07-22T04:41:59;99168.88;;;20.74;90.68
52975;BME280;38839;45.186;5.720;2023-07-22T04:44:25;99166.47;;;20.88;89.20
52975;BME280;38839;45.186;5.720;2023-07-22T04:46:50;99168.41;;;21.04;87.74
52975;BME280;38839;45.186;5.720;2023-07-22T04:49:15;99165.13;;;21.18;86.40
52975;BME280;38839;45.186;5.720;2023-07-22T04:51:46;99163.88;;;21.45;84.87
52975;BME280;38839;45.186;5.720;2023-07-22T04:54:12;99160.72;;;21.74;83.67
52975;BME280;38839;45.186;5.720;2023-07-22T04:56:37;99173.75;;;21.97;81.75
52975;BME280;38839;45.186;5.720;2023-07-22T04:59:03;99169.59;;;22.28;79.86
52975;BME280;38839;45.186;5.720;2023-07-22T05:01:29;99167.69;;;22.47;78.54
52975;BME280;38839;45.186;5.720;2023-07-22T05:03:54;99161.38;;;22.83;76.35
52975;BME280;38839;45.186;5.720;2023-07-22T05:06:20;99160.25;;;23.05;75.09
52975;BME280;38839;45.186;5.720;2023-07-22T05:08:46;99165.19;;;23.28;73.11
52975;BME280;38839;45.186;5.720;2023-07-22T05:11:11;99170.19;;;23.50;72.00
52975;BME280;38839;45.186;5.720;2023-07-22T05:13:37;99167.78;;;23.78;70.84
52975;BME280;38839;45.186;5.720;2023-07-22T05:16:02;99176.66;;;24.08;69.15
52975;BME280;38839;45.186;5.720;2023-07-22T05:18:28;99182.25;;;24.34;68.02
52975;BME280;38839;45.186;5.720;2023-07-22T05:20:53;99184.63;;;24.55;67.06
52975;BME280;38839;45.186;5.720;2023-07-22T05:23:18;99178.75;;;24.78;65.64
52975;BME280;38839;45.186;5.720;2023-07-22T05:25:49;99183.81;;;24.83;65.60
52975;BME280;38839;45.186;5.720;2023-07-22T05:28:15;99183.03;;;24.66;65.64
52975;BME280;38839;45.186;5.720;2023-07-22T05:30:40;99177.69;;;24.66;65.89
52975;BME280;38839;45.186;5.720;2023-07-22T05:33:06;99175.25;;;25.06;64.32
52975;BME280;38839;45.186;5.720;2023-07-22T05:35:31;99171.13;;;25.44;63.00
52975;BME280;38839;45.186;5.720;2023-07-22T05:37:56;99163.97;;;25.44;61.86
52975;BME280;38839;45.186;5.720;2023-07-22T05:40:22;99176.81;;;25.94;60.24
52975;BME280;38839;45.186;5.720;2023-07-22T05:42:47;99187.88;;;26.55;57.62
52975;BME280;38839;45.186;5.720;2023-07-22T05:45:13;99184.69;;;27.76;53.86
52975;BME280;38839;45.186;5.720;2023-07-22T05:47:40;99182.28;;;28.68;50.01
52975;BME280;38839;45.186;5.720;2023-07-22T05:50:06;99184.06;;;29.25;49.03
52975;BME280;38839;45.186;5.720;2023-07-22T05:52:31;99189.53;;;29.58;47.28
52975;BME280;38839;45.186;5.720;2023-07-22T05:54:57;99193.84;;;29.15;47.52
52975;BME280;38839;45.186;5.720;2023-07-22T05:57:22;99196.59;;;26.71;52.44
52975;BME280;38839;45.186;5.720;2023-07-22T05:59:48;99201.66;;;25.25;56.78
52975;BME280;38839;45.186;5.720;2023-07-22T06:02:13;99198.97;;;24.22;60.25
52975;BME280;38839;45.186;5.720;2023-07-22T06:04:38;99198.38;;;24.92;59.71
52975;BME280;38839;45.186;5.720;2023-07-22T06:07:04;99195.34;;;25.41;57.69
52975;BME280;38839;45.186;5.720;2023-07-22T06:09:29;99208.84;;;23.89;61.71
52975;BME280;38839;45.186;5.720;2023-07-22T06:11:55;99208.66;;;23.61;63.55
52975;BME280;38839;45.186;5.720;2023-07-22T06:14:20;99210.09;;;23.66;64.17
52975;BME280;38839;45.186;5.720;2023-07-22T06:16:45;99211.94;;;24.28;62.61
52975;BME280;38839;45.186;5.720;2023-07-22T06:19:11;99210.81;;;24.02;63.03
52975;BME280;38839;45.186;5.720;2023-07-22T06:21:36;99210.72;;;23.56;64.45
52975;BME280;38839;45.186;5.720;2023-07-22T06:24:01;99205.72;;;23.65;64.65
52975;BME280;38839;45.186;5.720;2023-07-22T06:26:27;99209.66;;;23.58;64.86
52975;BME280;38839;45.186;5.720;2023-07-22T06:28:52;99212.09;;;23.79;64.31
52975;BME280;38839;45.186;5.720;2023-07-22T06:31:18;99205.06;;;24.24;62.91
52975;BME280;38839;45.186;5.720;2023-07-22T06:33:43;99210.91;;;24.61;61.27
52975;BME280;38839;45.186;5.720;2023-07-22T06:36:09;99211.56;;;25.09;59.82
52975;BME280;38839;45.186;5.720;2023-07-22T06:38:34;99207.47;;;25.32;59.32
52975;BME280;38839;45.186;5.720;2023-07-22T06:40:59;99219.03;;;25.88;57.46
52975;BME280;38839;45.186;5.720;2023-07-22T06:43:25;99214.91;;;26.77;55.43
52975;BME280;38839;45.186;5.720;2023-07-22T06:45:50;99216.75;;;27.78;51.93
52975;BME280;38839;45.186;5.720;2023-07-22T06:48:16;99216.06;;;28.35;50.71
52975;BME280;38839;45.186;5.720;2023-07-22T06:50:47;99215.94;;;29.19;48.05
52975;BME280;38839;45.186;5.720;2023-07-22T06:53:13;99205.56;;;29.25;47.44
52975;BME280;38839;45.186;5.720;2023-07-22T06:55:40;99204.19;;;29.08;47.67
52975;BME280;38839;45.186;5.720;2023-07-22T06:58:05;99205.25;;;28.72;48.34
52975;BME280;38839;45.186;5.720;2023-07-22T07:00:30;99206.28;;;28.23;48.98
52975;BME280;38839;45.186;5.720;2023-07-22T07:02:56;99202.13;;;27.82;50.00
52975;BME280;38839;45.186;5.720;2023-07-22T07:05:21;99204.63;;;27.72;50.49
52975;BME280;38839;45.186;5.720;2023-07-22T07:07:48;99211.06;;;28.31;49.23
52975;BME280;38839;45.186;5.720;2023-07-22T07:10:14;99202.38;;;28.27;49.20
52975;BME280;38839;45.186;5.720;2023-07-22T07:12:39;99199.44;;;27.95;49.96
52975;BME280;38839;45.186;5.720;2023-07-22T07:15:05;99209.06;;;28.21;49.33
52975;BME280;38839;45.186;5.720;2023-07-22T07:17:31;99204.22;;;28.02;49.89
52975;BME280;38839;45.186;5.720;2023-07-22T07:19:56;99201.31;;;27.68;49.87
52975;BME280;38839;45.186;5.720;2023-07-22T07:22:22;99199.59;;;27.31;50.63
52975;BME280;38839;45.186;5.720;2023-07-22T07:24:47;99200.84;;;27.51;50.73
52975;BME280;38839;45.186;5.720;2023-07-22T07:27:12;99213.53;;;27.73;50.33
52975;BME280;38839;45.186;5.720;2023-07-22T07:29:38;99206.53;;;27.46;50.67
52975;BME280;38839;45.186;5.720;2023-07-22T07:32:03;99203.47;;;29.40;46.73
52975;BME280;38839;45.186;5.720;2023-07-22T07:34:29;99205.34;;;30.27;44.79
52975;BME280;38839;45.186;5.720;2023-07-22T07:36:54;99195.03;;;29.56;45.28
52975;BME280;38839;45.186;5.720;2023-07-22T07:39:20;99191.63;;;27.92;48.04
52975;BME280;38839;45.186;5.720;2023-07-22T07:41:45;99194.72;;;27.61;49.51
52975;BME280;38839;45.186;5.720;2023-07-22T07:44:10;99184.03;;;28.45;47.88
52975;BME280;38839;45.186;5.720;2023-07-22T07:46:36;99192.50;;;28.63;47.73
52975;BME280;38839;45.186;5.720;2023-07-22T07:49:01;99189.97;;;28.37;48.03
52975;BME280;38839;45.186;5.720;2023-07-22T07:51:28;99191.50;;;28.53;47.63
52975;BME280;38839;45.186;5.720;2023-07-22T07:53:55;99191.78;;;28.01;48.41
52975;BME280;38839;45.186;5.720;2023-07-22T07:56:22;99192.31;;;27.69;48.84
52975;BME280;38839;45.186;5.720;2023-07-22T07:58:48;99191.28;;;27.59;49.13
52975;BME280;38839;45.186;5.720;2023-07-22T08:01:14;99186.59;;;28.46;47.87
52975;BME280;38839;45.186;5.720;2023-07-22T08:03:41;99193.78;;;28.93;47.12
52975;BME280;38839;45.186;5.720;2023-07-22T08:06:07;99187.06;;;29.09;45.82
52975;BME280;38839;45.186;5.720;2023-07-22T08:08:33;99197.41;;;28.34;47.29
52975;BME280;38839;45.186;5.720;2023-07-22T08:13:28;99191.28;;;28.56;47.17
52975;BME280;38839;45.186;5.720;2023-07-22T08:15:56;99191.59;;;28.98;46.36
52975;BME280;38839;45.186;5.720;2023-07-22T08:18:22;99189.03;;;29.75;45.33
52975;BME280;38839;45.186;5.720;2023-07-22T08:20:50;99197.22;;;30.17;44.08
52975;BME280;38839;45.186;5.720;2023-07-22T08:23:15;99191.75;;;30.07;44.13
52975;BME280;38839;45.186;5.720;2023-07-22T08:25:41;99191.09;;;29.49;44.30
52975;BME280;38839;45.186;5.720;2023-07-22T08:28:07;99194.53;;;29.06;44.55
52975;BME280;38839;45.186;5.720;2023-07-22T08:30:32;99186.84;;;29.01;45.11
52975;BME280;38839;45.186;5.720;2023-07-22T08:32:57;99186.00;;;29.35;44.36
52975;BME280;38839;45.186;5.720;2023-07-22T08:35:23;99190.03;;;29.74;43.14
52975;BME280;38839;45.186;5.720;2023-07-22T08:37:48;99190.81;;;29.97;42.43
52975;BME280;38839;45.186;5.720;2023-07-22T08:40:13;99189.19;;;30.38;41.40
52975;BME280;38839;45.186;5.720;2023-07-22T08:42:40;99186.50;;;30.27;40.98
52975;BME280;38839;45.186;5.720;2023-07-22T08:45:10;99189.16;;;30.06;40.79
52975;BME280;38839;45.186;5.720;2023-07-22T08:47:40;99191.94;;;30.16;40.61
52975;BME280;38839;45.186;5.720;2023-07-22T08:50:10;99201.72;;;30.49;39.83
52975;BME280;38839;45.186;5.720;2023-07-22T08:52:37;99190.75;;;31.04;38.88
52975;BME280;38839;45.186;5.720;2023-07-22T08:55:03;99190.75;;;30.62;39.09
52975;BME280;38839;45.186;5.720;2023-07-22T08:57:29;99201.47;;;30.52;39.68
52975;BME280;38839;45.186;5.720;2023-07-22T08:59:57;99183.53;;;30.41;39.31
52975;BME280;38839;45.186;5.720;2023-07-22T09:02:23;99186.69;;;30.46;39.31
52975;BME280;38839;45.186;5.720;2023-07-22T09:04:49;99191.09;;;31.20;38.53
52975;BME280;38839;45.186;5.720;2023-07-22T09:07:16;99193.81;;;31.51;38.03
52975;BME280;38839;45.186;5.720;2023-07-22T09:09:44;99187.47;;;31.72;37.51
52975;BME280;38839;45.186;5.720;2023-07-22T09:12:12;99188.59;;;31.28;38.04
52975;BME280;38839;45.186;5.720;2023-07-22T09:14:40;99192.75;;;30.27;38.89
52975;BME280;38839;45.186;5.720;2023-07-22T09:17:05;99177.72;;;31.09;37.84
52975;BME280;38839;45.186;5.720;2023-07-22T09:19:31;99176.97;;;31.38;37.70
52975;BME280;38839;45.186;5.720;2023-07-22T09:21:56;99171.94;;;31.54;37.38
52975;BME280;38839;45.186;5.720;2023-07-22T09:24:25;99173.38;;;31.27;37.40
52975;BME280;38839;45.186;5.720;2023-07-22T09:26:51;99168.75;;;31.39;36.86
52975;BME280;38839;45.186;5.720;2023-07-22T09:29:17;99179.69;;;31.07;36.00
52975;BME280;38839;45.186;5.720;2023-07-22T09:31:50;99172.78;;;31.14;35.28
52975;BME280;38839;45.186;5.720;2023-07-22T09:34:16;99171.53;;;31.18;35.53
52975;BME280;38839;45.186;5.720;2023-07-22T09:36:52;99169.63;;;30.99;34.98
52975;BME280;38839;45.186;5.720;2023-07-22T09:39:17;99175.25;;;30.75;35.79
52975;BME280;38839;45.186;5.720;2023-07-22T09:41:43;99178.16;;;30.41;36.30
52975;BME280;38839;45.186;5.720;2023-07-22T09:44:11;99170.63;;;30.24;36.90
52975;BME280;38839;45.186;5.720;2023-07-22T09:46:40;99168.97;;;30.44;36.90
52975;BME280;38839;45.186;5.720;2023-07-22T09:49:13;99168.38;;;30.29;37.10
52975;BME280;38839;45.186;5.720;2023-07-22T09:51:47;99175.28;;;30.22;36.62
52975;BME280;38839;45.186;5.720;2023-07-22T09:54:23;99169.94;;;30.11;37.33
52975;BME280;38839;45.186;5.720;2023-07-22T09:56:59;99172.31;;;30.04;37.31
52975;BME280;38839;45.186;5.720;2023-07-22T09:59:30;99174.31;;;29.91;37.04
52975;BME280;38839;45.186;5.720;2023-07-22T10:02:06;99168.34;;;29.76;37.14
52975;BME280;38839;45.186;5.720;2023-07-22T10:04:39;99171.47;;;29.92;36.94
52975;BME280;38839;45.186;5.720;2023-07-22T10:07:11;99165.94;;;28.82;37.77
52975;BME280;38839;45.186;5.720;2023-07-22T10:09:41;99158.91;;;29.15;37.60
52975;BME280;38839;45.186;5.720;2023-07-22T10:12:11;99162.44;;;29.16;37.58
52975;BME280;38839;45.186;5.720;2023-07-22T10:14:43;99151.44;;;29.07;37.33
52975;BME280;38839;45.186;5.720;2023-07-22T10:17:15;99146.56;;;28.90;37.74
52975;BME280;38839;45.186;5.720;2023-07-22T10:19:47;99151.53;;;28.83;38.19
52975;BME280;38839;45.186;5.720;2023-07-22T10:22:18;99146.31;;;28.93;38.51
52975;BME280;38839;45.186;5.720;2023-07-22T10:24:50;99142.06;;;29.13;38.84
52975;BME280;38839;45.186;5.720;2023-07-22T10:27:23;99133.34;;;29.09;38.69
52975;BME280;38839;45.186;5.720;2023-07-22T10:29:55;99138.97;;;28.95;39.41
52975;BME280;38839;45.186;5.720;2023-07-22T10:32:30;99138.81;;;28.63;39.65
52975;BME280;38839;45.186;5.720;2023-07-22T10:35:00;99147.88;;;28.62;39.69
52975;BME280;38839;45.186;5.720;2023-07-22T10:37:38;99139.47;;;28.31;39.40
52975;BME280;38839;45.186;5.720;2023-07-22T10:42:53;99137.69;;;28.07;40.32
52975;BME280;38839;45.186;5.720;2023-07-22T10:45:31;99135.53;;;28.13;41.02
52975;BME280;38839;45.186;5.720;2023-07-22T10:48:07;99128.59;;;28.21;41.11
52975;BME280;38839;45.186;5.720;2023-07-22T10:50:53;99125.16;;;28.55;40.53
52975;BME280;38839;45.186;5.720;2023-07-22T10:58:57;99116.00;;;28.11;40.82
52975;BME280;38839;45.186;5.720;2023-07-22T11:12:02;99106.50;;;27.34;42.11
52975;BME280;38839;45.186;5.720;2023-07-22T11:14:30;99099.19;;;27.36;42.04
52975;BME280;38839;45.186;5.720;2023-07-22T11:16:57;99096.28;;;27.63;41.35
52975;BME280;38839;45.186;5.720;2023-07-22T11:19:24;99096.44;;;27.97;41.28
52975;BME280;38839;45.186;5.720;2023-07-22T11:21:51;99096.97;;;28.14;40.50
52975;BME280;38839;45.186;5.720;2023-07-22T11:24:18;99084.09;;;28.19;40.24
52975;BME280;38839;45.186;5.720;2023-07-22T11:26:44;99093.09;;;28.18;40.13
52975;BME280;38839;45.186;5.720;2023-07-22T11:29:11;99087.00;;;28.16;40.59
52975;BME280;38839;45.186;5.720;2023-07-22T11:31:39;99078.63;;;28.20;40.15
52975;BME280;38839;45.186;5.720;2023-07-22T11:34:09;99080.22;;;28.45;39.98
52975;BME280;38839;45.186;5.720;2023-07-22T11:36:35;99075.38;;;28.51;40.00
52975;BME280;38839;45.186;5.720;2023-07-22T11:39:06;99075.59;;;28.47;39.87
52975;BME280;38839;45.186;5.720;2023-07-22T11:41:32;99077.88;;;28.29;39.84
52975;BME280;38839;45.186;5.720;2023-07-22T11:43:58;99074.41;;;28.05;39.68
52975;BME280;38839;45.186;5.720;2023-07-22T11:46:25;99069.94;;;28.17;39.84
52975;BME280;38839;45.186;5.720;2023-07-22T11:48:52;99065.53;;;28.16;39.19
52975;BME280;38839;45.186;5.720;2023-07-22T11:51:20;99067.94;;;28.07;39.35
52975;BME280;38839;45.186;5.720;2023-07-22T11:53:49;99069.38;;;27.89;39.20
52975;BME280;38839;45.186;5.720;2023-07-22T11:56:28;99057.91;;;27.87;39.48
52975;BME280;38839;45.186;5.720;2023-07-22T11:58:57;99066.47;;;28.03;39.44
52975;BME280;38839;45.186;5.720;2023-07-22T12:01:23;99057.38;;;28.06;39.45
52975;BME280;38839;45.186;5.720;2023-07-22T12:03:49;99055.44;;;28.19;38.94
52975;BME280;38839;45.186;5.720;2023-07-22T12:06:20;99052.38;;;28.24;38.58
52975;BME280;38839;45.186;5.720;2023-07-22T12:08:47;99049.47;;;28.38;38.05
52975;BME280;38839;45.186;5.720;2023-07-22T12:11:17;99052.88;;;28.40;37.87
52975;BME280;38839;45.186;5.720;2023-07-22T12:13:44;99048.53;;;28.51;38.19
52975;BME280;38839;45.186;5.720;2023-07-22T12:16:22;99040.81;;;28.23;37.51
52975;BME280;38839;45.186;5.720;2023-07-22T12:18:54;99031.91;;;28.23;37.52
52975;BME280;38839;45.186;5.720;2023-07-22T12:21:20;99031.31;;;28.31;37.87
52975;BME280;38839;45.186;5.720;2023-07-22T12:23:45;99036.78;;;28.40;37.08
52975;BME280;38839;45.186;5.720;2023-07-22T12:26:11;99037.41;;;28.44;37.30
52975;BME280;38839;45.186;5.720;2023-07-22T12:28:36;99033.84;;;28.32;37.17
52975;BME280;38839;45.186;5.720;2023-07-22T12:31:03;99027.28;;;28.25;37.11
52975;BME280;38839;45.186;5.720;2023-07-22T12:33:28;99021.44;;;28.31;37.07
52975;BME280;38839;45.186;5.720;2023-07-22T12:35:55;99027.06;;;28.39;36.96
52975;BME280;38839;45.186;5.720;2023-07-22T12:38:20;99025.09;;;28.41;36.90
52975;BME280;38839;45.186;5.720;2023-07-22T12:40:46;99021.78;;;28.38;36.56
52975;BME280;38839;45.186;5.720;2023-07-22T12:43:11;99025.34;;;28.27;36.77
52975;BME280;38839;45.186;5.720;2023-07-22T12:45:37;99018.38;;;28.36;36.47
52975;BME280;38839;45.186;5.720;2023-07-22T12:48:02;99011.69;;;28.41;36.20
52975;BME280;38839;45.186;5.720;2023-07-22T12:50:29;99010.69;;;28.42;36.39
52975;BME280;38839;45.186;5.720;2023-07-22T12:52:55;99005.47;;;28.41;36.13
52975;BME280;38839;45.186;5.720;2023-07-22T12:55:20;99007.31;;;28.52;36.60
52975;BME280;38839;45.186;5.720;2023-07-22T12:57:45;99006.06;;;28.44;36.08
52975;BME280;38839;45.186;5.720;2023-07-22T13:00:11;98997.22;;;28.55;36.36
52975;BME280;38839;45.186;5.720;2023-07-22T13:02:37;99006.09;;;28.67;36.02
52975;BME280;38839;45.186;5.720;2023-07-22T13:05:04;99007.19;;;28.76;36.10
52975;BME280;38839;45.186;5.720;2023-07-22T13:07:31;98998.03;;;28.78;35.98
52975;BME280;38839;45.186;5.720;2023-07-22T13:09:56;98994.72;;;28.86;35.35
52975;BME280;38839;45.186;5.720;2023-07-22T13:12:24;98996.81;;;28.71;35.72
52975;BME280;38839;45.186;5.720;2023-07-22T13:14:49;98995.72;;;28.74;35.78
52975;BME280;38839;45.186;5.720;2023-07-22T13:17:14;98999.72;;;28.79;35.72
52975;BME280;38839;45.186;5.720;2023-07-22T13:19:40;99003.13;;;28.81;35.30
52975;BME280;38839;45.186;5.720;2023-07-22T13:22:05;99001.56;;;28.90;35.03